sensor_id;sensor_type;location;lat;lon;timestamp;pressure;altitude;pressure_sealevel;temperature
66027;BMP280;56312;55.976;37.136;2022-10-16T00:01:40;99848.47;;;20.77
66027;BMP280;56312;55.976;37.136;2022-10-16T00:06:46;99851.16;;;20.76
66027;BMP280;56312;55.976;37.136;2022-10-16T00:11:52;99853.34;;;20.69
66027;BMP280;56312;55.976;37.136;2022-10-16T00:16:59;99861.91;;;20.71
66027;BMP280;56312;55.976;37.136;2022-10-16T00:22:05;99863.66;;;20.71
66027;BMP280;56312;55.976;37.136;2022-10-16T00:27:11;99860.34;;;20.69
66027;BMP280;56312;55.976;37.136;2022-10-16T00:32:18;99860.03;;;20.73
66027;BMP280;56312;55.976;37.136;2022-10-16T00:37:25;99860.47;;;20.80
66027;BMP280;56312;55.976;37.136;2022-10-16T00:42:31;99858.63;;;20.82
66027;BMP280;56312;55.976;37.136;2022-10-16T00:47:39;99862.34;;;20.78
66027;BMP280;56312;55.976;37.136;2022-10-16T00:52:50;99856.50;;;20.74
66027;BMP280;56312;55.976;37.136;2022-10-16T00:57:58;99856.66;;;20.71
66027;BMP280;56312;55.976;37.136;2022-10-16T01:08:34;99860.88;;;20.60
66027;BMP280;56312;55.976;37.136;2022-10-16T01:13:52;99861.06;;;20.71
66027;BMP280;56312;55.976;37.136;2022-10-16T01:19:08;99864.50;;;20.71
66027;BMP280;56312;55.976;37.136;2022-10-16T01:35:03;99873.66;;;20.64
66027;BMP280;56312;55.976;37.136;2022-10-16T01:40:15;99874.28;;;20.68
66027;BMP280;56312;55.976;37.136;2022-10-16T01:45:24;99880.81;;;20.75
66027;BMP280;56312;55.976;37.136;2022-10-16T01:50:32;99874.75;;;20.74
66027;BMP280;56312;55.976;37.136;2022-10-16T01:55:43;99882.59;;;20.60
66027;BMP280;56312;55.976;37.136;2022-10-16T02:00:51;99883.25;;;20.64
66027;BMP280;56312;55.976;37.136;2022-10-16T02:05:59;99890.06;;;20.66
66027;BMP280;56312;55.976;37.136;2022-10-16T02:11:06;99886.50;;;20.67
66027;BMP280;56312;55.976;37.136;2022-10-16T02:16:13;99884.00;;;20.66
66027;BMP280;56312;55.976;37.136;2022-10-16T02:21:22;99879.16;;;20.74
66027;BMP280;56312;55.976;37.136;2022-10-16T02:26:40;99884.19;;;20.77
66027;BMP280;56312;55.976;37.136;2022-10-16T02:32:01;99886.50;;;20.67
66027;BMP280;56312;55.976;37.136;2022-10-16T02:37:10;99891.38;;;20.73
66027;BMP280;56312;55.976;37.136;2022-10-16T02:42:18;99887.47;;;20.66
66027;BMP280;56312;55.976;37.136;2022-10-16T02:47:24;99889.66;;;20.72
66027;BMP280;56312;55.976;37.136;2022-10-16T02:52:30;99893.31;;;20.70
66027;BMP280;56312;55.976;37.136;2022-10-16T02:57:37;99892.19;;;20.74
66027;BMP280;56312;55.976;37.136;2022-10-16T03:02:46;99902.19;;;20.67
66027;BMP280;56312;55.976;37.136;2022-10-16T03:07:52;99895.00;;;20.71
66027;BMP280;56312;55.976;37.136;2022-10-16T03:12:59;99894.53;;;20.64
66027;BMP280;56312;55.976;37.136;2022-10-16T03:18:05;99893.50;;;20.67
66027;BMP280;56312;55.976;37.136;2022-10-16T03:23:11;99890.66;;;20.58
66027;BMP280;56312;55.976;37.136;2022-10-16T03:28:17;99890.72;;;20.56
66027;BMP280;56312;55.976;37.136;2022-10-16T03:33:24;99910.03;;;20.54
66027;BMP280;56312;55.976;37.136;2022-10-16T03:38:30;99908.34;;;20.53
66027;BMP280;56312;55.976;37.136;2022-10-16T03:43:36;99907.44;;;20.54
66027;BMP280;56312;55.976;37.136;2022-10-16T03:48:43;99908.53;;;20.63
66027;BMP280;56312;55.976;37.136;2022-10-16T03:53:49;99912.81;;;20.64
66027;BMP280;56312;55.976;37.136;2022-10-16T03:58:55;99917.47;;;20.59
66027;BMP280;56312;55.976;37.136;2022-10-16T04:04:02;99927.38;;;20.55
66027;BMP280;56312;55.976;37.136;2022-10-16T04:09:08;99928.19;;;20.55
66027;BMP280;56312;55.976;37.136;2022-10-16T04:14:14;99929.97;;;20.55
66027;BMP280;56312;55.976;37.136;2022-10-16T04:19:20;99932.19;;;20.60
66027;BMP280;56312;55.976;37.136;2022-10-16T04:24:27;99925.31;;;20.59
66027;BMP280;56312;55.976;37.136;2022-10-16T04:29:33;99926.13;;;20.60
66027;BMP280;56312;55.976;37.136;2022-10-16T04:34:39;99918.78;;;20.53
66027;BMP280;56312;55.976;37.136;2022-10-16T04:39:46;99922.31;;;20.52
66027;BMP280;56312;55.976;37.136;2022-10-16T04:44:52;99927.53;;;20.52
66027;BMP280;56312;55.976;37.136;2022-10-16T04:49:58;99921.63;;;20.48
66027;BMP280;56312;55.976;37.136;2022-10-16T04:55:08;99920.84;;;20.61
66027;BMP280;56312;55.976;37.136;2022-10-16T05:00:14;99926.97;;;20.60
66027;BMP280;56312;55.976;37.136;2022-10-16T05:05:21;99927.69;;;20.49
66027;BMP280;56312;55.976;37.136;2022-10-16T05:10:27;99933.72;;;20.51
66027;BMP280;56312;55.976;37.136;2022-10-16T05:15:34;99936.47;;;20.48
66027;BMP280;56312;55.976;37.136;2022-10-16T05:20:40;99938.94;;;20.51
66027;BMP280;56312;55.976;37.136;2022-10-16T05:25:56;99940.78;;;20.62
66027;BMP280;56312;55.976;37.136;2022-10-16T05:31:06;99949.38;;;20.51
66027;BMP280;56312;55.976;37.136;2022-10-16T05:36:13;99948.25;;;20.55
66027;BMP280;56312;55.976;37.136;2022-10-16T05:41:19;99944.13;;;20.64
66027;BMP280;56312;55.976;37.136;2022-10-16T05:46:27;99946.72;;;20.64
66027;BMP280;56312;55.976;37.136;2022-10-16T05:51:33;99937.69;;;20.56
66027;BMP280;56312;55.976;37.136;2022-10-16T05:56:39;99946.56;;;20.54
66027;BMP280;56312;55.976;37.136;2022-10-16T06:01:46;99955.69;;;20.60
66027;BMP280;56312;55.976;37.136;2022-10-16T06:06:52;99955.50;;;20.63
66027;BMP280;56312;55.976;37.136;2022-10-16T06:11:58;99957.38;;;20.61
66027;BMP280;56312;55.976;37.136;2022-10-16T06:17:05;99958.28;;;20.60
66027;BMP280;56312;55.976;37.136;2022-10-16T06:22:11;99956.25;;;20.65
66027;BMP280;56312;55.976;37.136;2022-10-16T06:27:18;99951.69;;;20.69
66027;BMP280;56312;55.976;37.136;2022-10-16T06:32:24;99955.03;;;20.71
66027;BMP280;56312;55.976;37.136;2022-10-16T06:37:30;99961.94;;;20.72
66027;BMP280;56312;55.976;37.136;2022-10-16T06:42:36;99965.56;;;20.83
66027;BMP280;56312;55.976;37.136;2022-10-16T06:47:43;99973.56;;;20.94
66027;BMP280;56312;55.976;37.136;2022-10-16T06:52:49;99973.22;;;21.00
66027;BMP280;56312;55.976;37.136;2022-10-16T06:57:55;99969.09;;;20.96
66027;BMP280;56312;55.976;37.136;2022-10-16T07:03:01;99967.22;;;20.98
66027;BMP280;56312;55.976;37.136;2022-10-16T07:08:08;99968.22;;;21.09
66027;BMP280;56312;55.976;37.136;2022-10-16T07:13:15;99962.72;;;21.13
66027;BMP280;56312;55.976;37.136;2022-10-16T07:18:21;99973.75;;;21.05
66027;BMP280;56312;55.976;37.136;2022-10-16T07:23:31;99971.69;;;21.10
66027;BMP280;56312;55.976;37.136;2022-10-16T07:28:38;99977.19;;;21.19
66027;BMP280;56312;55.976;37.136;2022-10-16T07:33:45;99976.59;;;21.28
66027;BMP280;56312;55.976;37.136;2022-10-16T07:38:53;99978.84;;;21.34
66027;BMP280;56312;55.976;37.136;2022-10-16T07:44:00;99979.00;;;21.44
66027;BMP280;56312;55.976;37.136;2022-10-16T07:49:06;99971.94;;;21.59
66027;BMP280;56312;55.976;37.136;2022-10-16T07:54:12;99980.31;;;21.64
66027;BMP280;56312;55.976;37.136;2022-10-16T07:59:18;99967.44;;;21.61
66027;BMP280;56312;55.976;37.136;2022-10-16T08:04:25;99970.19;;;21.71
66027;BMP280;56312;55.976;37.136;2022-10-16T08:09:31;99971.69;;;21.75
66027;BMP280;56312;55.976;37.136;2022-10-16T08:14:37;99975.16;;;21.88
66027;BMP280;56312;55.976;37.136;2022-10-16T08:19:45;99974.22;;;21.89
66027;BMP280;56312;55.976;37.136;2022-10-16T08:24:53;99975.28;;;21.99
66027;BMP280;56312;55.976;37.136;2022-10-16T08:30:00;99969.53;;;21.94
66027;BMP280;56312;55.976;37.136;2022-10-16T08:35:06;99976.13;;;21.99
66027;BMP280;56312;55.976;37.136;2022-10-16T08:40:24;99970.69;;;22.02
66027;BMP280;56312;55.976;37.136;2022-10-16T08:51:29;99960.38;;;22.13
66027;BMP280;56312;55.976;37.136;2022-10-16T08:56:37;99963.31;;;22.09
66027;BMP280;56312;55.976;37.136;2022-10-16T09:01:44;99954.50;;;22.10
66027;BMP280;56312;55.976;37.136;2022-10-16T09:06:58;99951.91;;;22.10
66027;BMP280;56312;55.976;37.136;2022-10-16T09:12:12;99950.63;;;22.03
66027;BMP280;56312;55.976;37.136;2022-10-16T09:17:56;99946.47;;;22.13
66027;BMP280;56312;55.976;37.136;2022-10-16T09:23:12;99946.16;;;22.17
66027;BMP280;56312;55.976;37.136;2022-10-16T09:28:21;99939.78;;;22.09
66027;BMP280;56312;55.976;37.136;2022-10-16T09:33:28;99936.41;;;22.07
66027;BMP280;56312;55.976;37.136;2022-10-16T09:38:39;99930.97;;;22.10
66027;BMP280;56312;55.976;37.136;2022-10-16T09:48:59;99922.50;;;22.19
66027;BMP280;56312;55.976;37.136;2022-10-16T09:59:15;99908.38;;;22.09
66027;BMP280;56312;55.976;37.136;2022-10-16T10:04:23;99903.78;;;22.12
66027;BMP280;56312;55.976;37.136;2022-10-16T10:14:50;99907.94;;;22.15
66027;BMP280;56312;55.976;37.136;2022-10-16T10:19:59;99905.13;;;22.18
66027;BMP280;56312;55.976;37.136;2022-10-16T10:25:22;99909.41;;;22.19
66027;BMP280;56312;55.976;37.136;2022-10-16T11:13:42;99922.28;;;22.21
66027;BMP280;56312;55.976;37.136;2022-10-16T11:19:00;99919.88;;;22.19
66027;BMP280;56312;55.976;37.136;2022-10-16T11:29:56;99907.22;;;22.13
66027;BMP280;56312;55.976;37.136;2022-10-16T11:35:20;99902.50;;;22.18
66027;BMP280;56312;55.976;37.136;2022-10-16T11:40:33;99897.47;;;22.15
66027;BMP280;56312;55.976;37.136;2022-10-16T11:45:49;99893.50;;;22.21
66027;BMP280;56312;55.976;37.136;2022-10-16T11:51:06;99889.84;;;22.12
66027;BMP280;56312;55.976;37.136;2022-10-16T11:56:33;99900.22;;;22.13
66027;BMP280;56312;55.976;37.136;2022-10-16T12:01:48;99895.38;;;22.07
66027;BMP280;56312;55.976;37.136;2022-10-16T12:07:02;99887.13;;;22.13
66027;BMP280;56312;55.976;37.136;2022-10-16T12:12:27;99887.44;;;22.21
66027;BMP280;56312;55.976;37.136;2022-10-16T12:17:44;99888.50;;;22.31
66027;BMP280;56312;55.976;37.136;2022-10-16T12:22:52;99875.78;;;22.37
66027;BMP280;56312;55.976;37.136;2022-10-16T12:33:22;99872.38;;;22.24
66027;BMP280;56312;55.976;37.136;2022-10-16T12:38:49;99878.00;;;22.19
66027;BMP280;56312;55.976;37.136;2022-10-16T12:43:57;99878.31;;;22.14
66027;BMP280;56312;55.976;37.136;2022-10-16T12:54:20;99877.16;;;22.18
66027;BMP280;56312;55.976;37.136;2022-10-16T12:59:53;99870.47;;;22.14
66027;BMP280;56312;55.976;37.136;2022-10-16T13:32:23;99868.78;;;22.25
66027;BMP280;56312;55.976;37.136;2022-10-16T13:37:29;99871.75;;;22.21
66027;BMP280;56312;55.976;37.136;2022-10-16T13:42:35;99866.06;;;22.15
66027;BMP280;56312;55.976;37.136;2022-10-16T13:47:42;99871.09;;;22.18
66027;BMP280;56312;55.976;37.136;2022-10-16T13:52:48;99874.16;;;22.12
66027;BMP280;56312;55.976;37.136;2022-10-16T13:58:04;99872.13;;;22.15
66027;BMP280;56312;55.976;37.136;2022-10-16T14:03:20;99868.19;;;22.10
66027;BMP280;56312;55.976;37.136;2022-10-16T14:08:27;99873.63;;;22.07
66027;BMP280;56312;55.976;37.136;2022-10-16T14:13:39;99865.75;;;22.07
66027;BMP280;56312;55.976;37.136;2022-10-16T14:18:56;99868.19;;;22.10
66027;BMP280;56312;55.976;37.136;2022-10-16T14:24:39;99858.16;;;22.04
66027;BMP280;56312;55.976;37.136;2022-10-16T14:29:39;99864.69;;;21.97
66027;BMP280;56312;55.976;37.136;2022-10-16T14:34:52;99864.31;;;22.03
66027;BMP280;56312;55.976;37.136;2022-10-16T14:39:59;99864.84;;;22.08
66027;BMP280;56312;55.976;37.136;2022-10-16T14:45:08;99857.91;;;22.07
66027;BMP280;56312;55.976;37.136;2022-10-16T14:50:17;99864.50;;;22.00
66027;BMP280;56312;55.976;37.136;2022-10-16T14:55:23;99862.09;;;21.97
66027;BMP280;56312;55.976;37.136;2022-10-16T15:00:31;99854.31;;;21.95
66027;BMP280;56312;55.976;37.136;2022-10-16T15:05:37;99860.19;;;21.99
66027;BMP280;56312;55.976;37.136;2022-10-16T15:10:43;99867.31;;;21.97
66027;BMP280;56312;55.976;37.136;2022-10-16T15:15:50;99866.06;;;21.90
66027;BMP280;56312;55.976;37.136;2022-10-16T15:20:58;99866.44;;;21.84
66027;BMP280;56312;55.976;37.136;2022-10-16T15:26:04;99864.97;;;21.80
66027;BMP280;56312;55.976;37.136;2022-10-16T15:31:11;99875.56;;;21.91
66027;BMP280;56312;55.976;37.136;2022-10-16T15:36:17;99858.91;;;21.92
66027;BMP280;56312;55.976;37.136;2022-10-16T15:41:29;99857.47;;;21.88
66027;BMP280;56312;55.976;37.136;2022-10-16T15:46:36;99861.03;;;21.87
66027;BMP280;56312;55.976;37.136;2022-10-16T15:51:42;99858.91;;;21.80
66027;BMP280;56312;55.976;37.136;2022-10-16T15:56:49;99851.06;;;21.80
66027;BMP280;56312;55.976;37.136;2022-10-16T16:01:55;99844.28;;;21.77
66027;BMP280;56312;55.976;37.136;2022-10-16T16:07:01;99845.75;;;21.81
66027;BMP280;56312;55.976;37.136;2022-10-16T16:12:08;99851.06;;;21.92
66027;BMP280;56312;55.976;37.136;2022-10-16T16:17:14;99840.84;;;21.89
66027;BMP280;56312;55.976;37.136;2022-10-16T16:22:21;99855.28;;;21.82
66027;BMP280;56312;55.976;37.136;2022-10-16T16:27:27;99858.84;;;21.81
66027;BMP280;56312;55.976;37.136;2022-10-16T16:32:35;99852.13;;;21.77
66027;BMP280;56312;55.976;37.136;2022-10-16T16:37:41;99849.94;;;21.84
66027;BMP280;56312;55.976;37.136;2022-10-16T16:42:48;99854.97;;;21.87
66027;BMP280;56312;55.976;37.136;2022-10-16T16:47:55;99852.84;;;21.79
66027;BMP280;56312;55.976;37.136;2022-10-16T16:53:01;99859.03;;;21.78
66027;BMP280;56312;55.976;37.136;2022-10-16T16:58:07;99861.66;;;21.78
66027;BMP280;56312;55.976;37.136;2022-10-16T17:03:14;99864.78;;;21.83
66027;BMP280;56312;55.976;37.136;2022-10-16T17:08:20;99867.00;;;21.77
66027;BMP280;56312;55.976;37.136;2022-10-16T17:13:27;99870.63;;;21.74
66027;BMP280;56312;55.976;37.136;2022-10-16T17:18:35;99870.97;;;21.82
66027;BMP280;56312;55.976;37.136;2022-10-16T17:23:42;99857.88;;;21.82
66027;BMP280;56312;55.976;37.136;2022-10-16T17:28:51;99857.56;;;21.74
66027;BMP280;56312;55.976;37.136;2022-10-16T17:34:00;99851.59;;;21.72
66027;BMP280;56312;55.976;37.136;2022-10-16T17:39:09;99862.28;;;21.69
66027;BMP280;56312;55.976;37.136;2022-10-16T17:44:17;99864.97;;;21.68
66027;BMP280;56312;55.976;37.136;2022-10-16T17:49:27;99852.66;;;21.70
66027;BMP280;56312;55.976;37.136;2022-10-16T17:54:33;99843.16;;;21.69
66027;BMP280;56312;55.976;37.136;2022-10-16T17:59:40;99845.13;;;21.66
66027;BMP280;56312;55.976;37.136;2022-10-16T18:04:46;99841.75;;;21.64
66027;BMP280;56312;55.976;37.136;2022-10-16T18:09:52;99846.59;;;21.69
66027;BMP280;56312;55.976;37.136;2022-10-16T18:14:58;99847.50;;;21.68
66027;BMP280;56312;55.976;37.136;2022-10-16T18:20:06;99835.38;;;21.67
66027;BMP280;56312;55.976;37.136;2022-10-16T18:25:13;99831.53;;;21.73
66027;BMP280;56312;55.976;37.136;2022-10-16T18:30:19;99830.91;;;21.82
66027;BMP280;56312;55.976;37.136;2022-10-16T18:35:25;99829.00;;;21.71
66027;BMP280;56312;55.976;37.136;2022-10-16T18:40:34;99829.00;;;21.71
66027;BMP280;56312;55.976;37.136;2022-10-16T18:45:40;99829.84;;;21.60
66027;BMP280;56312;55.976;37.136;2022-10-16T18:50:47;99827.72;;;21.65
66027;BMP280;56312;55.976;37.136;2022-10-16T18:55:53;99815.63;;;21.64
66027;BMP280;56312;55.976;37.136;2022-10-16T19:01:03;99813.94;;;21.63
66027;BMP280;56312;55.976;37.136;2022-10-16T19:06:12;99810.91;;;21.68
66027;BMP280;56312;55.976;37.136;2022-10-16T19:11:20;99813.75;;;21.66
66027;BMP280;56312;55.976;37.136;2022-10-16T19:16:29;99809.22;;;21.67
66027;BMP280;56312;55.976;37.136;2022-10-16T19:21:38;99810.38;;;21.64
66027;BMP280;56312;55.976;37.136;2022-10-16T19:26:45;99809.44;;;21.65
66027;BMP280;56312;55.976;37.136;2022-10-16T19:31:51;99809.56;;;21.63
66027;BMP280;56312;55.976;37.136;2022-10-16T19:36:57;99816.69;;;21.73
66027;BMP280;56312;55.976;37.136;2022-10-16T19:42:03;99809.75;;;21.72
66027;BMP280;56312;55.976;37.136;2022-10-16T19:47:10;99811.84;;;21.67
66027;BMP280;56312;55.976;37.136;2022-10-16T19:52:16;99812.88;;;21.65
66027;BMP280;56312;55.976;37.136;2022-10-16T19:57:23;99812.47;;;21.59
66027;BMP280;56312;55.976;37.136;2022-10-16T20:02:30;99817.91;;;21.68
66027;BMP280;56312;55.976;37.136;2022-10-16T20:07:36;99815.63;;;21.64
66027;BMP280;56312;55.976;37.136;2022-10-16T20:12:43;99825.22;;;21.63
66027;BMP280;56312;55.976;37.136;2022-10-16T20:17:49;99818.47;;;21.73
66027;BMP280;56312;55.976;37.136;2022-10-16T20:22:55;99832.38;;;21.73
66027;BMP280;56312;55.976;37.136;2022-10-16T20:28:02;99822.75;;;21.62
66027;BMP280;56312;55.976;37.136;2022-10-16T20:33:09;99821.88;;;21.61
66027;BMP280;56312;55.976;37.136;2022-10-16T20:38:17;99812.06;;;21.65
66027;BMP280;56312;55.976;37.136;2022-10-16T20:43:23;99813.94;;;21.63
66027;BMP280;56312;55.976;37.136;2022-10-16T20:48:29;99806.19;;;21.61
66027;BMP280;56312;55.976;37.136;2022-10-16T20:53:36;99806.50;;;21.57
66027;BMP280;56312;55.976;37.136;2022-10-16T20:58:43;99803.16;;;21.55
66027;BMP280;56312;55.976;37.136;2022-10-16T21:03:51;99795.44;;;21.66
66027;BMP280;56312;55.976;37.136;2022-10-16T21:09:02;99796.69;;;21.72
66027;BMP280;56312;55.976;37.136;2022-10-16T21:14:11;99795.22;;;21.68
66027;BMP280;56312;55.976;37.136;2022-10-16T21:19:17;99786.97;;;21.62
66027;BMP280;56312;55.976;37.136;2022-10-16T21:24:23;99788.84;;;21.72
66027;BMP280;56312;55.976;37.136;2022-10-16T21:29:30;99786.53;;;21.68
66027;BMP280;56312;55.976;37.136;2022-10-16T21:34:36;99789.78;;;21.59
66027;BMP280;56312;55.976;37.136;2022-10-16T21:39:43;99787.38;;;21.56
66027;BMP280;56312;55.976;37.136;2022-10-16T21:44:49;99792.81;;;21.53
66027;BMP280;56312;55.976;37.136;2022-10-16T21:49:55;99786.44;;;21.69
66027;BMP280;56312;55.976;37.136;2022-10-16T21:55:01;99794.19;;;21.59
66027;BMP280;56312;55.976;37.136;2022-10-16T22:00:08;99774.81;;;21.61
66027;BMP280;56312;55.976;37.136;2022-10-16T22:05:15;99778.06;;;21.65
66027;BMP280;56312;55.976;37.136;2022-10-16T22:10:21;99775.44;;;21.65
66027;BMP280;56312;55.976;37.136;2022-10-16T22:15:27;99763.66;;;21.59
66027;BMP280;56312;55.976;37.136;2022-10-16T22:20:33;99769.06;;;21.56
66027;BMP280;56312;55.976;37.136;2022-10-16T22:25:40;99770.66;;;21.46
66027;BMP280;56312;55.976;37.136;2022-10-16T22:30:47;99766.91;;;21.50
66027;BMP280;56312;55.976;37.136;2022-10-16T22:35:53;99753.72;;;21.52
66027;BMP280;56312;55.976;37.136;2022-10-16T22:41:01;99755.59;;;21.50
66027;BMP280;56312;55.976;37.136;2022-10-16T22:46:09;99758.09;;;21.51
66027;BMP280;56312;55.976;37.136;2022-10-16T22:51:18;99763.72;;;21.45
66027;BMP280;56312;55.976;37.136;2022-10-16T22:56:25;99768.25;;;21.56
66027;BMP280;56312;55.976;37.136;2022-10-16T23:01:35;99761.66;;;21.50
66027;BMP280;56312;55.976;37.136;2022-10-16T23:06:44;99762.69;;;21.48
66027;BMP280;56312;55.976;37.136;2022-10-16T23:11:50;99757.47;;;21.48
66027;BMP280;56312;55.976;37.136;2022-10-16T23:16:56;99761.66;;;21.50
66027;BMP280;56312;55.976;37.136;2022-10-16T23:22:03;99741.78;;;21.48
66027;BMP280;56312;55.976;37.136;2022-10-16T23:27:09;99743.69;;;21.46
66027;BMP280;56312;55.976;37.136;2022-10-16T23:32:15;99740.84;;;21.49
66027;BMP280;56312;55.976;37.136;2022-10-16T23:37:21;99732.59;;;21.42
66027;BMP280;56312;55.976;37.136;2022-10-16T23:42:28;99708.75;;;21.47
66027;BMP280;56312;55.976;37.136;2022-10-16T23:47:34;99705.84;;;21.39
66027;BMP280;56312;55.976;37.136;2022-10-16T23:52:40;99699.78;;;21.51
66027;BMP280;56312;55.976;37.136;2022-10-16T23:57:47;99703.09;;;21.53
